createdAt,value
2023-02-13T00:04:51.544Z,44.63
2023-02-13T00:09:55.733Z,44.78
2023-02-13T00:14:59.147Z,44.72
2023-02-13T00:20:02.019Z,44.66
2023-02-13T00:25:07.075Z,44.60
2023-02-13T00:30:10.881Z,44.75
2023-02-13T00:35:13.921Z,44.70
2023-02-13T00:40:18.124Z,44.46
2023-02-13T00:45:20.951Z,44.60
2023-02-13T00:50:23.703Z,44.53
2023-02-13T00:55:27.851Z,44.59
2023-02-13T01:00:30.680Z,44.57
2023-02-13T01:05:33.629Z,44.71
2023-02-13T01:10:38.236Z,44.72
2023-02-13T01:15:41.572Z,44.49
2023-02-13T01:20:44.842Z,44.59
2023-02-13T01:25:51.535Z,44.68
2023-02-13T01:30:55.589Z,44.65
2023-02-13T01:36:00.290Z,44.71
2023-02-13T01:41:05.275Z,44.59
2023-02-13T01:46:08.507Z,44.56
2023-02-13T01:51:13.042Z,44.57
2023-02-13T01:56:20.702Z,44.85
2023-02-13T02:01:23.892Z,44.72
2023-02-13T02:06:29.223Z,44.83
2023-02-13T02:11:37.132Z,44.60
2023-02-13T02:16:41.101Z,44.77
2023-02-13T02:22:00.763Z,44.68
2023-02-13T02:27:33.438Z,44.90
2023-02-13T02:32:46.122Z,44.88
2023-02-13T02:37:57.050Z,44.80
2023-02-13T02:43:09.978Z,44.68
2023-02-13T02:48:36.789Z,44.98
2023-02-13T02:53:40.972Z,44.83
2023-02-13T02:59:03.832Z,44.82
2023-02-13T03:04:34.044Z,44.76
2023-02-13T03:09:56.051Z,44.89
2023-02-13T03:14:58.910Z,44.83
2023-02-13T03:20:28.730Z,44.83
2023-02-13T03:25:35.073Z,44.79
2023-02-13T03:30:44.761Z,44.65
2023-02-13T03:36:13.319Z,44.68
2023-02-13T03:41:20.886Z,44.82
2023-02-13T03:46:23.728Z,44.83
2023-02-13T03:51:29.505Z,44.89
2023-02-13T03:56:50.029Z,44.67
2023-02-13T04:01:58.416Z,44.74
2023-02-13T04:07:03.652Z,44.79
2023-02-13T04:12:10.260Z,44.82
2023-02-13T04:17:15.090Z,44.76
2023-02-13T04:22:19.492Z,44.78
2023-02-13T04:27:22.398Z,45.17
2023-02-13T04:32:25.164Z,44.93
2023-02-13T04:37:29.344Z,44.58
2023-02-13T04:42:32.221Z,45.05
2023-02-13T04:47:35.112Z,45.20
2023-02-13T04:52:39.426Z,45.16
2023-02-13T04:57:42.197Z,44.94
2023-02-13T05:02:45.001Z,45.02
2023-02-13T05:07:49.116Z,45.04
2023-02-13T05:12:52.022Z,45.06
2023-02-13T05:17:54.794Z,45.12
2023-02-13T05:23:17.506Z,45.17
2023-02-13T05:28:37.714Z,45.38
2023-02-13T05:33:40.693Z,45.33
2023-02-13T05:38:44.875Z,45.27
2023-02-13T05:43:47.799Z,45.36
2023-02-13T05:48:50.698Z,45.44
2023-02-13T05:53:54.788Z,45.74
2023-02-13T05:58:57.605Z,45.59
2023-02-13T06:04:03.423Z,45.86
2023-02-13T06:09:08.377Z,45.69
2023-02-13T06:14:12.052Z,45.79
2023-02-13T06:19:14.866Z,45.85
2023-02-13T06:24:19.100Z,45.88
2023-02-13T06:29:22.021Z,45.88
2023-02-13T06:34:24.810Z,45.95
2023-02-13T06:39:28.965Z,46.02
2023-02-13T06:44:31.798Z,45.91
2023-02-13T06:49:34.599Z,46.09
2023-02-13T06:54:47.359Z,46.17
2023-02-13T06:59:50.671Z,46.45
2023-02-13T07:04:53.555Z,46.40
2023-02-13T07:09:57.650Z,46.51
2023-02-13T07:15:00.661Z,45.98
2023-02-13T07:20:04.478Z,46.04
2023-02-13T07:25:09.383Z,46.20
2023-02-13T07:30:13.026Z,45.88
2023-02-13T07:35:15.882Z,45.70
2023-02-13T07:40:20.304Z,45.73
2023-02-13T07:45:23.161Z,45.67
2023-02-13T07:50:26.072Z,45.76
2023-02-13T07:55:30.451Z,45.63
2023-02-13T08:00:33.292Z,45.67
2023-02-13T08:05:36.009Z,45.76
2023-02-13T08:10:58.064Z,45.87
2023-02-13T08:16:00.909Z,45.79
2023-02-13T08:21:03.810Z,45.75
2023-02-13T08:26:07.955Z,45.75
2023-02-13T08:31:12.150Z,45.82
2023-02-13T08:36:14.955Z,45.78
2023-02-13T08:41:20.856Z,46.08
2023-02-13T08:46:23.816Z,45.86
2023-02-13T08:51:26.684Z,45.94
2023-02-13T08:56:30.856Z,45.99
2023-02-13T09:01:33.730Z,45.96
2023-02-13T09:06:36.543Z,46.13
2023-02-13T09:11:40.785Z,42.64
2023-02-13T09:16:43.602Z,41.54
2023-02-13T09:21:46.444Z,42.24
2023-02-13T09:26:50.578Z,42.25
2023-02-13T09:31:53.700Z,41.34
2023-02-13T09:36:56.466Z,41.10
2023-02-13T09:42:00.728Z,41.12
2023-02-13T09:47:06.466Z,41.36
2023-02-13T09:52:09.261Z,41.17
2023-02-13T09:57:17.871Z,41.20
2023-02-13T10:02:36.710Z,41.33
2023-02-13T10:07:42.498Z,41.79
2023-02-13T10:13:04.976Z,41.90
2023-02-13T10:18:11.550Z,42.14
2023-02-13T10:23:19.685Z,42.20
2023-02-13T10:28:30.104Z,42.53
2023-02-13T10:33:35.146Z,42.56
2023-02-13T10:38:51.308Z,42.73
2023-02-13T10:44:03.362Z,42.81
2023-02-13T10:49:21.935Z,42.88
2023-02-13T10:54:35.417Z,42.89
2023-02-13T10:59:55.142Z,42.91
2023-02-13T11:05:00.321Z,43.02
2023-02-13T11:10:07.123Z,43.10
2023-02-13T11:15:26.712Z,43.26
2023-02-13T11:20:32.848Z,43.19
2023-02-13T11:25:35.860Z,43.41
2023-02-13T11:30:40.154Z,43.27
2023-02-13T11:35:42.957Z,43.17
2023-02-13T11:40:47.615Z,43.31
2023-02-13T11:46:06.679Z,43.40
2023-02-13T11:51:09.446Z,43.67
2023-02-13T11:56:13.491Z,43.62
2023-02-13T12:01:28.598Z,43.83
2023-02-13T12:06:31.601Z,44.00
2023-02-13T12:11:38.017Z,43.91
2023-02-13T12:16:43.474Z,44.24
2023-02-13T12:21:56.959Z,44.07
2023-02-13T12:27:01.180Z,39.12
2023-02-13T12:32:11.935Z,38.55
2023-02-13T12:37:20.321Z,40.57
2023-02-13T12:42:32.641Z,40.67
2023-02-13T12:47:38.557Z,40.23
2023-02-13T12:52:47.078Z,40.07
2023-02-13T12:57:57.488Z,39.91
2023-02-13T13:03:19.014Z,39.80
2023-02-13T13:08:34.914Z,39.93
2023-02-13T13:13:44.061Z,40.50
2023-02-13T13:18:54.208Z,40.23
2023-02-13T13:24:00.990Z,40.53
2023-02-13T13:29:06.444Z,40.65
2023-02-13T13:34:23.710Z,40.83
2023-02-13T13:39:33.718Z,41.38
2023-02-13T13:44:44.795Z,42.43
2023-02-13T13:49:52.714Z,42.93
2023-02-13T13:54:56.849Z,43.66
2023-02-13T14:00:18.406Z,43.91
2023-02-13T14:05:27.574Z,44.23
2023-02-13T14:11:00.249Z,44.32
2023-02-13T14:16:03.591Z,44.42
2023-02-13T14:21:07.770Z,44.30
2023-02-13T14:26:19.042Z,44.72
2023-02-13T14:31:23.605Z,44.75
2023-02-13T14:36:32.239Z,44.69
2023-02-13T14:41:58.738Z,44.57
2023-02-13T14:47:04.225Z,44.66
2023-02-13T14:52:10.671Z,44.74
2023-02-13T14:57:16.273Z,44.72
2023-02-13T15:02:22.777Z,44.91
2023-02-13T15:07:27.893Z,45.02
2023-02-13T15:12:31.891Z,45.08
2023-02-13T15:17:38.512Z,44.75
2023-02-13T15:22:43.510Z,43.66
2023-02-13T15:27:46.475Z,44.18
2023-02-13T15:32:55.132Z,44.30
2023-02-13T15:37:59.304Z,44.18
2023-02-13T15:43:02.298Z,44.09
2023-02-13T15:48:05.278Z,44.06
2023-02-13T15:53:13.663Z,44.14
2023-02-13T15:58:16.553Z,43.79
2023-02-13T16:03:19.535Z,43.75
2023-02-13T16:08:31.777Z,43.63
2023-02-13T16:13:34.587Z,43.68
2023-02-13T16:18:37.390Z,43.68
2023-02-13T16:23:41.831Z,43.46
2023-02-13T16:28:46.946Z,43.41
2023-02-13T16:33:49.819Z,43.45
2023-02-13T16:38:54.194Z,43.22
2023-02-13T16:43:57.438Z,43.28
2023-02-13T16:49:06.799Z,43.25
2023-02-13T16:54:19.157Z,43.20
2023-02-13T16:59:33.337Z,43.26
2023-02-13T17:04:39.254Z,43.27
2023-02-13T17:09:43.396Z,43.29
2023-02-13T17:14:46.819Z,43.38
2023-02-13T17:19:49.724Z,43.54
2023-02-13T17:24:53.985Z,44.05
2023-02-13T17:29:56.852Z,43.71
2023-02-13T17:34:59.606Z,43.37
2023-02-13T17:40:03.755Z,43.15
2023-02-13T17:45:06.971Z,42.76
2023-02-13T17:50:10.985Z,42.45
2023-02-13T17:55:18.372Z,42.63
2023-02-13T18:00:21.681Z,42.22
2023-02-13T18:05:24.556Z,42.12
2023-02-13T18:10:29.529Z,41.92
2023-02-13T18:15:32.783Z,41.89
2023-02-13T18:20:35.728Z,41.72
2023-02-13T18:25:39.820Z,41.55
2023-02-13T18:30:43.035Z,41.46
2023-02-13T18:35:45.961Z,41.24
2023-02-13T18:40:50.153Z,41.37
2023-02-13T18:45:53.140Z,41.36
2023-02-13T18:50:56.160Z,41.16
2023-02-13T18:56:04.319Z,40.98
2023-02-13T19:01:08.637Z,40.85
2023-02-13T19:06:12.398Z,40.75
2023-02-13T19:11:17.374Z,40.67
2023-02-13T19:16:20.369Z,41.24
2023-02-13T19:21:24.112Z,41.17
2023-02-13T19:26:28.266Z,41.29
2023-02-13T19:31:32.954Z,41.45
2023-02-13T19:36:35.856Z,41.43
2023-02-13T19:41:40.849Z,41.58
2023-02-13T19:46:43.719Z,41.78
2023-02-13T19:51:47.271Z,41.64
2023-02-13T19:56:51.452Z,41.80
2023-02-13T20:01:54.428Z,41.80
2023-02-13T20:06:58.328Z,41.67
2023-02-13T20:12:02.522Z,41.84
2023-02-13T20:17:06.209Z,41.78
2023-02-13T20:22:08.937Z,41.78
2023-02-13T20:27:13.253Z,41.87
2023-02-13T20:32:16.329Z,41.87
2023-02-13T20:37:19.219Z,41.87
2023-02-13T20:42:23.463Z,41.83
2023-02-13T20:47:26.520Z,41.92
2023-02-13T20:52:29.298Z,42.02
2023-02-13T20:57:35.325Z,41.96
2023-02-13T21:02:38.296Z,42.11
2023-02-13T21:07:43.536Z,42.15
2023-02-13T21:12:47.747Z,42.17
2023-02-13T21:17:50.710Z,42.33
2023-02-13T21:22:53.641Z,42.33
2023-02-13T21:27:57.793Z,42.39
2023-02-13T21:33:00.576Z,42.19
2023-02-13T21:38:03.439Z,42.33
2023-02-13T21:43:07.630Z,42.38
2023-02-13T21:48:10.594Z,42.36
2023-02-13T21:53:13.587Z,42.27
2023-02-13T21:58:17.788Z,42.35
2023-02-13T22:03:20.745Z,42.50
2023-02-13T22:08:23.564Z,42.48
2023-02-13T22:13:27.816Z,42.71
2023-02-13T22:18:31.685Z,42.86
2023-02-13T22:23:36.655Z,42.93
2023-02-13T22:28:40.995Z,42.94
2023-02-13T22:33:47.538Z,43.02
2023-02-13T22:38:52.949Z,43.07
2023-02-13T22:43:57.251Z,43.30
2023-02-13T22:49:00.043Z,43.26
2023-02-13T22:54:02.981Z,43.34
2023-02-13T22:59:07.239Z,43.43
2023-02-13T23:04:10.103Z,43.47
2023-02-13T23:09:12.938Z,43.55
2023-02-13T23:14:17.068Z,43.34
2023-02-13T23:19:20.452Z,43.36
2023-02-13T23:24:23.344Z,43.54
2023-02-13T23:29:27.604Z,43.40
2023-02-13T23:34:30.410Z,43.57
2023-02-13T23:39:33.177Z,43.51
2023-02-13T23:44:37.430Z,43.69
2023-02-13T23:49:40.251Z,43.69
2023-02-13T23:54:43.495Z,43.57
2023-02-13T23:59:47.601Z,43.75
